Main page
METAR-TAF:

METAR-TAF

Airports :

Geneva, Switzerland

Geneva Airport

latitude: 46-15N, longitude: 006-08E, elevation: 420 m

Current weather observation

The report was made 15 minutes ago, at 05:50 UTC
Wind 1 kt from variable directions
Temperature 5°C
Humidity 100%
Pressure 1027 hPa
Visibility 10 km or more
Few clouds at a height of 2000 ft
Broken clouds at a height of 8000 ft

METAR: LSGG 240550Z VRB01KT 9999 FEW020 BKN080 05/05 Q1027 NOSIG

Time: 08:05 (06:05 UTC)

Forecast

The report was made 40 minutes ago, at 05:25 UTC
Forecast valid from 24 at 06 UTC to 25 at 12 UTC
Wind 3 kt from variable directions
Visibility 10 km or more
Few clouds at a height of 3500 ft
Scattered clouds at a height of 8000 ft
Probability 30% :
Temporary
from 25 at 03 UTC to 25 at 06 UTC
Visibility: 3000 m
patches of fog

TAF: LSGG 240525Z 2406/2512 VRB03KT 9999 FEW035 SCT080 TX16/2415Z TN05/2406Z TN06/2506Z PROB30 TEMPO 2503/2506 3000 BCFG

Weather observations and forecasts of more than 4000 airports (METAR and TAF reports).

The available stations are represented by yellow and red dots on the map.

Hover mouse over dot to see the name of the station.

Then click to see weather observations and forecasts.

To change the map : click on the green buttons with a black cross to zoom in, on the green button with a dash to zoom out, or on the green arrows for adjacent maps.


METAR-TAF: